Terminal Aerodrome Forecast
Issued by NWS Albany, NY

Home | Current Version | Previous Version | Text Only | Print | Product List | Glossary On
Versions: 1 2 3 4 5 6 7 8 9 10 11 12 13 14 15 16 17 18 19
000
FTUS41 KALY 012035 AAF
TAFGFL
TAF AMD
KGFL 012035Z 0121/0218 22005KT 2SM -DZ BR BKN006 OVC012
      TEMPO 0121/0124 3SM BR SCT006 OVC012
     FM020000 16007KT 5SM -DZ BR BKN007 OVC020
     FM020600 14005KT 6SM -DZ BR OVC020
     FM021400 12006KT 3SM -RA BR BKN008 OVC020=

USA.gov is the U.S. government's official web portal to all federal, state and local government web resources and services.